createdAt,value
2018-10-09T00:01:31.572Z,95269.86
2018-10-09T00:04:00.470Z,95263.48
2018-10-09T00:06:29.675Z,95270.63
2018-10-09T00:08:58.748Z,95263.19
2018-10-09T00:11:27.493Z,95260.66
2018-10-09T00:13:56.333Z,95259.64
2018-10-09T00:16:25.240Z,95258.98
2018-10-09T00:18:53.955Z,95263.83
2018-10-09T00:21:22.860Z,95262.38
2018-10-09T00:23:51.598Z,95259.47
2018-10-09T00:26:20.304Z,95261.55
2018-10-09T00:28:49.230Z,95262.02
2018-10-09T00:31:18.292Z,95265.88
2018-10-09T00:33:47.181Z,95260.78
2018-10-09T00:36:15.944Z,95266.01
2018-10-09T00:38:44.914Z,95263.09
2018-10-09T00:41:14.064Z,95265.42
2018-10-09T00:43:42.778Z,95273.89
2018-10-09T00:46:11.533Z,95268.11
2018-10-09T00:48:40.350Z,95266.73
2018-10-09T00:51:09.157Z,95262.17
2018-10-09T00:53:38.659Z,95266.36
2018-10-09T00:56:07.629Z,95285.23
2018-10-09T00:58:36.343Z,95273.09
2018-10-09T01:01:05.092Z,95276.94
2018-10-09T01:03:33.807Z,95275.66
2018-10-09T01:06:02.473Z,95279.55
2018-10-09T01:08:31.285Z,95269.43
2018-10-09T01:11:00.353Z,95267.74
2018-10-09T01:13:29.154Z,95266.80
2018-10-09T01:15:58.026Z,95262.56
2018-10-09T01:18:27.022Z,95270.56
2018-10-09T01:20:55.853Z,95266.05
2018-10-09T01:23:24.542Z,95266.05
2018-10-09T01:25:53.281Z,95266.61
2018-10-09T01:28:22.322Z,95268.21
2018-10-09T01:30:51.107Z,95273.19
2018-10-09T01:33:20.054Z,95272.98
2018-10-09T01:35:48.851Z,95270.95
2018-10-09T01:38:17.782Z,95268.86
2018-10-09T01:40:46.569Z,95268.36
2018-10-09T01:43:15.400Z,95267.97
2018-10-09T01:45:44.134Z,95273.06
2018-10-09T01:48:13.107Z,95268.81
2018-10-09T01:50:41.974Z,95268.89
2018-10-09T01:53:10.617Z,95276.61
2018-10-09T01:55:39.228Z,95275.91
2018-10-09T01:58:08.132Z,95272.56
2018-10-09T02:00:36.738Z,95269.34
2018-10-09T02:03:05.455Z,95265.66
2018-10-09T02:05:34.564Z,95270.52
2018-10-09T02:08:03.326Z,95274.52
2018-10-09T02:10:32.311Z,95272.41
2018-10-09T02:13:00.927Z,95195.61
2018-10-09T02:15:29.721Z,95274.48
2018-10-09T02:17:58.938Z,95276.42
2018-10-09T02:20:27.775Z,95269.67
2018-10-09T02:22:56.451Z,95269.84
2018-10-09T02:25:25.170Z,95271.91
2018-10-09T02:27:53.912Z,95271.84
2018-10-09T02:30:22.854Z,95269.14
2018-10-09T02:32:51.936Z,95273.25
2018-10-09T02:35:20.809Z,95276.81
2018-10-09T02:37:49.852Z,95274.18
2018-10-09T02:40:19.018Z,95277.89
2018-10-09T02:42:47.897Z,95235.33
2018-10-09T02:45:16.752Z,95280.52
2018-10-09T02:47:45.481Z,95281.92
2018-10-09T02:50:14.515Z,95281.22
2018-10-09T02:52:43.210Z,95277.98
2018-10-09T02:55:11.945Z,95276.42
2018-10-09T02:57:40.924Z,95280.28
2018-10-09T03:00:10.235Z,95266.29
2018-10-09T03:02:39.126Z,95276.25
2018-10-09T03:05:08.479Z,95280.39
2018-10-09T03:07:37.562Z,95281.08
2018-10-09T03:10:06.856Z,95206.70
2018-10-09T03:12:36.207Z,95272.89
2018-10-09T03:15:06.080Z,95277.48
2018-10-09T03:17:35.371Z,95281.29
2018-10-09T03:20:04.319Z,95299.22
2018-10-09T03:22:32.958Z,95283.35
2018-10-09T03:25:01.812Z,95285.80
2018-10-09T03:27:30.394Z,95285.12
2018-10-09T03:29:58.965Z,95285.97
2018-10-09T03:32:28.193Z,95292.48
2018-10-09T03:34:57.082Z,95295.55
2018-10-09T03:37:25.973Z,95297.06
2018-10-09T03:39:54.991Z,95290.73
2018-10-09T03:42:23.699Z,95295.52
2018-10-09T03:44:52.783Z,95297.52
2018-10-09T03:47:22.165Z,95294.55
2018-10-09T03:49:50.948Z,95298.72
2018-10-09T03:52:19.811Z,95295.24
2018-10-09T03:54:48.517Z,95292.75
2018-10-09T03:57:17.233Z,95293.75
2018-10-09T03:59:46.041Z,95303.81
2018-10-09T04:02:15.103Z,95301.87
2018-10-09T04:04:43.997Z,95303.12
2018-10-09T04:07:12.878Z,95303.66
2018-10-09T04:09:42.150Z,95298.77
2018-10-09T04:12:10.862Z,95303.62
2018-10-09T04:14:39.773Z,95305.34
2018-10-09T04:17:08.906Z,95305.12
2018-10-09T04:19:37.698Z,95309.05
2018-10-09T04:22:07.159Z,95310.34
2018-10-09T04:24:36.026Z,95302.39
2018-10-09T04:27:04.713Z,95305.16
2018-10-09T04:29:33.635Z,95302.89
2018-10-09T04:32:02.788Z,95304.36
2018-10-09T04:34:31.677Z,95299.72
2018-10-09T04:37:00.778Z,95307.14
2018-10-09T04:39:29.827Z,95311.16
2018-10-09T04:41:58.948Z,95309.52
2018-10-09T04:44:27.822Z,95309.79
2018-10-09T04:46:57.404Z,95312.59
2018-10-09T04:49:26.178Z,95310.95
2018-10-09T04:51:55.019Z,95312.56
2018-10-09T04:54:24.016Z,95340.53
2018-10-09T04:56:52.747Z,95321.36
2018-10-09T04:59:21.856Z,95328.38
2018-10-09T05:01:51.016Z,95333.69
2018-10-09T05:04:20.248Z,95338.73
2018-10-09T05:06:49.367Z,95335.87
2018-10-09T05:09:18.360Z,95336.27
2018-10-09T05:11:47.275Z,95337.09
2018-10-09T05:14:16.408Z,95336.89
2018-10-09T05:16:45.922Z,95339.09
2018-10-09T05:19:15.008Z,95346.52
2018-10-09T05:21:43.692Z,95342.47
2018-10-09T05:24:12.410Z,95344.45
2018-10-09T05:26:41.374Z,95352.47
2018-10-09T05:29:10.115Z,95355.75
2018-10-09T05:31:39.206Z,95357.00
2018-10-09T05:34:08.055Z,95352.28
2018-10-09T05:36:36.708Z,95357.84
2018-10-09T05:39:07.286Z,95362.50
2018-10-09T05:41:36.440Z,95363.23
2018-10-09T05:44:05.287Z,95361.51
2018-10-09T05:46:34.526Z,95367.17
2018-10-09T05:49:03.334Z,95376.15
2018-10-09T05:51:31.963Z,95375.42
2018-10-09T05:54:00.587Z,95372.20
2018-10-09T05:56:29.774Z,95377.33
2018-10-09T05:58:58.834Z,95378.89
2018-10-09T06:01:27.859Z,95380.40
2018-10-09T06:03:56.956Z,95375.72
2018-10-09T06:06:25.554Z,95385.30
2018-10-09T06:08:54.710Z,95379.18
2018-10-09T06:11:23.822Z,95381.09
2018-10-09T06:13:52.700Z,95387.23
2018-10-09T06:16:21.386Z,95389.23
2018-10-09T06:18:50.625Z,95383.56
2018-10-09T06:21:19.381Z,95381.47
2018-10-09T06:23:48.118Z,95384.11
2018-10-09T06:26:16.727Z,95390.02
2018-10-09T06:28:46.049Z,95385.06
2018-10-09T06:31:14.982Z,95395.67
2018-10-09T06:33:44.111Z,95394.66
2018-10-09T06:36:13.230Z,95400.34
2018-10-09T06:38:42.087Z,95395.52
2018-10-09T06:41:10.995Z,95401.16
2018-10-09T06:43:39.933Z,95404.30
2018-10-09T06:46:09.222Z,95403.73
2018-10-09T06:48:38.198Z,95405.63
2018-10-09T06:51:06.990Z,95410.06
2018-10-09T06:53:36.213Z,95405.24
2018-10-09T06:56:04.751Z,95404.89
2018-10-09T06:58:33.435Z,95414.86
2018-10-09T07:01:02.199Z,95410.66
2018-10-09T07:03:30.941Z,95414.44
2018-10-09T07:05:59.738Z,95408.89
2018-10-09T07:08:28.747Z,95411.52
2018-10-09T07:10:58.144Z,95409.02
2018-10-09T07:13:27.420Z,95414.94
2018-10-09T07:15:56.732Z,95409.27
2018-10-09T07:18:25.352Z,95413.22
2018-10-09T07:20:54.075Z,95406.22
2018-10-09T07:23:22.936Z,95404.06
2018-10-09T07:25:52.183Z,95401.39
2018-10-09T07:28:21.596Z,95410.39
2018-10-09T07:30:50.658Z,95409.23
2018-10-09T07:33:19.314Z,95407.34
2018-10-09T07:35:47.987Z,95409.70
2018-10-09T07:38:16.936Z,95411.84
2018-10-09T07:40:45.614Z,95415.93
2018-10-09T07:43:14.338Z,95404.40
2018-10-09T07:45:42.977Z,95408.47
2018-10-09T07:48:11.836Z,95407.18
2018-10-09T07:50:40.531Z,95407.45
2018-10-09T07:53:09.539Z,95403.31
2018-10-09T07:55:38.478Z,95399.89
2018-10-09T07:58:07.757Z,95399.38
2018-10-09T08:00:36.894Z,95403.63
2018-10-09T08:03:05.765Z,95408.35
2018-10-09T08:05:34.562Z,95404.43
2018-10-09T08:08:04.680Z,95406.28
2018-10-09T08:10:33.544Z,95399.14
2018-10-09T08:13:02.364Z,95405.75
2018-10-09T08:15:31.376Z,95404.69
2018-10-09T08:18:00.335Z,95407.06
2018-10-09T08:20:29.064Z,95408.16
2018-10-09T08:22:58.091Z,95409.47
2018-10-09T08:25:26.811Z,95401.55
2018-10-09T08:27:55.652Z,95408.98
2018-10-09T08:30:24.730Z,95401.86
2018-10-09T08:32:53.501Z,95398.16
2018-10-09T08:35:22.503Z,95403.95
2018-10-09T08:37:51.827Z,95403.64
2018-10-09T08:40:21.020Z,95399.70
2018-10-09T08:42:49.993Z,95402.34
2018-10-09T08:45:18.988Z,95404.97
2018-10-09T08:47:47.777Z,95412.87
2018-10-09T08:50:16.768Z,95405.20
2018-10-09T08:52:45.668Z,95414.46
2018-10-09T08:55:14.414Z,95418.66
2018-10-09T08:57:43.278Z,95417.08
2018-10-09T09:00:12.718Z,95412.27
2018-10-09T09:02:41.328Z,95414.00
2018-10-09T09:05:10.519Z,95417.34
2018-10-09T09:07:39.451Z,95420.28
2018-10-09T09:10:08.414Z,95411.53
2018-10-09T09:12:37.399Z,95409.88
2018-10-09T09:15:06.783Z,95412.48
2018-10-09T09:17:35.834Z,95414.45
2018-10-09T09:20:04.931Z,95408.72
2018-10-09T09:22:33.794Z,95411.23
2018-10-09T09:25:02.535Z,95415.16
2018-10-09T09:27:31.810Z,95416.42
2018-10-09T09:30:00.723Z,95415.91
2018-10-09T09:32:29.620Z,95406.09
2018-10-09T09:34:58.443Z,95404.05
2018-10-09T09:37:27.372Z,95408.23
2018-10-09T09:39:56.310Z,95412.23
2018-10-09T09:42:25.343Z,95414.70
2018-10-09T09:44:54.451Z,95411.25
2018-10-09T09:47:23.822Z,95417.33
2018-10-09T09:49:52.625Z,95414.33
2018-10-09T09:52:21.844Z,95409.23
2018-10-09T09:54:50.607Z,95408.94
2018-10-09T09:57:19.717Z,95399.97
2018-10-09T09:59:48.828Z,95404.11
2018-10-09T10:02:17.710Z,95401.72
2018-10-09T10:04:46.859Z,95401.64
2018-10-09T10:07:16.055Z,95395.05
2018-10-09T10:09:44.848Z,95392.45
2018-10-09T10:12:13.625Z,95388.98
2018-10-09T10:14:42.481Z,95391.27
2018-10-09T10:17:11.360Z,95388.53
2018-10-09T10:19:39.994Z,95382.31
2018-10-09T10:22:09.450Z,95380.73
2018-10-09T10:24:38.115Z,95378.24
2018-10-09T10:27:07.222Z,95383.34
2018-10-09T10:29:36.225Z,95378.42
2018-10-09T10:32:04.975Z,95380.55
2018-10-09T10:34:34.021Z,95376.16
2018-10-09T10:37:05.923Z,95377.81
2018-10-09T10:39:34.871Z,95370.34
2018-10-09T10:42:04.318Z,95366.77
2018-10-09T10:44:33.042Z,95365.13
2018-10-09T10:47:01.895Z,95369.91
2018-10-09T10:49:30.907Z,95363.64
2018-10-09T10:51:59.603Z,95365.41
2018-10-09T10:54:28.365Z,95362.34
2018-10-09T10:56:57.141Z,95355.59
2018-10-09T10:59:25.853Z,95358.92
2018-10-09T11:01:54.569Z,95358.23
2018-10-09T11:04:23.550Z,95361.56
2018-10-09T11:06:52.458Z,95355.58
2018-10-09T11:09:21.456Z,95359.39
2018-10-09T11:11:50.857Z,95354.80
2018-10-09T11:14:19.864Z,95353.94
2018-10-09T11:16:48.853Z,95353.36
2018-10-09T11:19:17.645Z,95355.53
2018-10-09T11:21:46.424Z,95353.55
2018-10-09T11:24:15.120Z,95338.81
2018-10-09T11:26:44.414Z,95352.30
2018-10-09T11:29:13.409Z,95351.52
2018-10-09T11:31:42.198Z,95350.95
2018-10-09T11:34:11.792Z,95345.63
2018-10-09T11:36:40.667Z,95351.24
2018-10-09T11:39:10.385Z,95351.37
2018-10-09T11:41:39.241Z,95351.39
2018-10-09T11:44:08.397Z,95355.44
2018-10-09T11:46:38.127Z,95359.31
2018-10-09T11:49:07.443Z,95360.44
2018-10-09T11:51:36.183Z,95347.88
2018-10-09T11:54:05.134Z,95349.88
2018-10-09T11:56:33.982Z,95351.64
2018-10-09T11:59:02.902Z,95354.10
2018-10-09T12:01:32.400Z,95352.16
2018-10-09T12:04:01.474Z,95350.96
2018-10-09T12:06:31.258Z,95337.83
2018-10-09T12:09:00.802Z,95345.23
2018-10-09T12:11:29.686Z,95341.83
2018-10-09T12:13:58.582Z,95347.85
2018-10-09T12:16:27.533Z,95343.52
2018-10-09T12:18:56.204Z,95350.98
2018-10-09T12:21:24.976Z,95346.17
2018-10-09T12:23:53.772Z,95353.28
2018-10-09T12:26:22.934Z,95348.44
2018-10-09T12:28:52.008Z,95341.09
2018-10-09T12:31:21.351Z,95345.84
2018-10-09T12:33:50.217Z,95340.24
2018-10-09T12:36:19.038Z,95345.98
2018-10-09T12:38:48.416Z,95348.77
2018-10-09T12:41:17.405Z,95346.59
2018-10-09T12:43:46.547Z,95348.25
2018-10-09T12:46:15.883Z,95350.73
2018-10-09T12:48:44.552Z,95342.69
2018-10-09T12:51:13.183Z,95342.11
2018-10-09T12:53:42.122Z,95347.86
2018-10-09T12:56:10.954Z,95348.39
2018-10-09T12:58:40.005Z,95340.30
2018-10-09T13:01:09.271Z,95347.03
2018-10-09T13:03:38.138Z,95337.20
2018-10-09T13:06:07.081Z,95341.48
2018-10-09T13:08:36.299Z,95336.55
2018-10-09T13:11:05.136Z,95340.48
2018-10-09T13:13:34.031Z,95340.45
2018-10-09T13:16:02.815Z,95334.46
2018-10-09T13:18:31.863Z,95333.32
2018-10-09T13:21:00.979Z,95327.73
2018-10-09T13:23:29.702Z,95332.22
2018-10-09T13:25:58.839Z,95330.13
2018-10-09T13:28:27.622Z,95327.31
2018-10-09T13:30:56.497Z,95334.66
2018-10-09T13:33:25.210Z,95333.17
2018-10-09T13:35:54.059Z,95329.89
2018-10-09T13:38:22.944Z,95318.30
2018-10-09T13:40:51.839Z,95315.92
2018-10-09T13:43:20.607Z,95314.68
2018-10-09T13:45:49.626Z,95318.18
2018-10-09T13:48:18.327Z,95317.23
2018-10-09T13:50:47.118Z,95324.75
2018-10-09T13:53:15.867Z,95324.36
2018-10-09T13:55:44.564Z,95318.98
2018-10-09T13:58:13.508Z,95319.45
2018-10-09T14:00:42.326Z,95322.30
2018-10-09T14:03:11.639Z,95318.60
2018-10-09T14:05:40.552Z,95317.03
2018-10-09T14:08:09.389Z,95312.77
2018-10-09T14:10:38.268Z,95317.70
2018-10-09T14:13:07.318Z,95315.67
2018-10-09T14:15:36.318Z,95309.31
2018-10-09T14:18:05.018Z,95318.60
2018-10-09T14:20:33.711Z,95319.36
2018-10-09T14:23:02.446Z,95319.69
2018-10-09T14:25:31.310Z,95315.88
2018-10-09T14:28:00.149Z,95318.06
2018-10-09T14:30:29.376Z,95321.31
2018-10-09T14:32:58.382Z,95321.46
2018-10-09T14:35:27.600Z,95317.79
2018-10-09T14:37:56.430Z,95316.95
2018-10-09T14:40:25.487Z,95318.58
2018-10-09T14:42:54.422Z,95326.27
2018-10-09T14:45:23.094Z,95332.14
2018-10-09T14:47:51.894Z,95326.78
2018-10-09T14:50:20.620Z,95325.78
2018-10-09T14:52:49.275Z,95328.66
2018-10-09T14:55:18.276Z,95330.12
2018-10-09T14:57:47.372Z,95328.19
2018-10-09T15:00:16.388Z,95326.88
2018-10-09T15:02:45.135Z,95327.50
2018-10-09T15:05:14.036Z,95329.03
2018-10-09T15:07:42.763Z,95322.80
2018-10-09T15:10:11.406Z,95329.39
2018-10-09T15:12:40.325Z,95329.39
2018-10-09T15:15:09.036Z,95332.75
2018-10-09T15:17:37.820Z,95333.16
2018-10-09T15:20:07.727Z,95340.50
2018-10-09T15:22:36.495Z,95337.94
2018-10-09T15:25:05.426Z,95336.15
2018-10-09T15:27:39.603Z,95337.55
2018-10-09T15:30:08.559Z,95340.47
2018-10-09T15:32:37.630Z,95343.95
2018-10-09T15:35:06.437Z,95343.94
2018-10-09T15:37:35.605Z,95348.28
2018-10-09T15:40:04.510Z,95352.33
2018-10-09T15:42:33.473Z,95353.66
2018-10-09T15:45:02.711Z,95358.30
2018-10-09T15:47:31.378Z,95352.59
2018-10-09T15:50:00.071Z,95355.11
2018-10-09T15:52:29.014Z,95366.05
2018-10-09T15:54:57.875Z,95364.52
2018-10-09T15:57:26.585Z,95365.31
2018-10-09T15:59:55.983Z,95360.41
2018-10-09T16:02:24.879Z,95375.63
2018-10-09T16:04:53.484Z,95376.23
2018-10-09T16:07:22.572Z,95378.47
2018-10-09T16:09:51.583Z,95389.95
2018-10-09T16:12:20.314Z,95389.45
2018-10-09T16:14:49.737Z,95387.69
2018-10-09T16:17:18.391Z,95394.05
2018-10-09T16:19:47.172Z,95392.45
2018-10-09T16:22:16.175Z,95388.30
2018-10-09T16:24:44.808Z,95397.27
2018-10-09T16:27:13.510Z,95401.53
2018-10-09T16:29:42.675Z,95396.80
2018-10-09T16:32:11.652Z,95399.45
2018-10-09T16:34:40.396Z,95403.97
2018-10-09T16:37:09.666Z,95406.06
2018-10-09T16:39:38.386Z,95410.58
2018-10-09T16:42:07.409Z,95112.53
2018-10-09T16:44:36.714Z,95412.14
2018-10-09T16:47:06.556Z,95411.09
2018-10-09T16:49:37.091Z,95410.05
2018-10-09T16:52:05.825Z,95414.73
2018-10-09T16:54:35.020Z,95408.15
2018-10-09T16:57:03.964Z,95416.06
2018-10-09T16:59:32.652Z,95426.06
2018-10-09T17:02:01.574Z,95424.47
2018-10-09T17:04:30.792Z,95418.41
2018-10-09T17:06:59.971Z,95418.09
2018-10-09T17:09:28.762Z,95418.34
2018-10-09T17:11:57.904Z,95422.27
2018-10-09T17:14:27.075Z,95435.94
2018-10-09T17:16:55.894Z,95431.44
2018-10-09T17:19:24.556Z,95428.49
2018-10-09T17:21:53.350Z,95431.09
2018-10-09T17:24:22.138Z,95439.41
2018-10-09T17:26:51.299Z,95437.49
2018-10-09T17:29:20.408Z,95439.23
2018-10-09T17:31:49.307Z,95437.30
2018-10-09T17:34:18.320Z,95438.20
2018-10-09T17:36:47.419Z,95433.95
2018-10-09T17:39:16.427Z,95440.76
2018-10-09T17:41:45.226Z,95443.87
2018-10-09T17:44:14.498Z,95443.11
2018-10-09T17:46:43.244Z,95448.46
2018-10-09T17:49:12.131Z,95448.00
2018-10-09T17:51:41.063Z,95454.74
2018-10-09T17:54:10.041Z,95458.09
2018-10-09T17:56:39.592Z,95462.51
2018-10-09T17:59:08.867Z,95468.33
2018-10-09T18:01:37.950Z,95459.64
2018-10-09T18:04:06.988Z,95471.19
2018-10-09T18:06:36.026Z,95469.82
2018-10-09T18:09:07.527Z,95479.19
2018-10-09T18:11:36.499Z,95475.80
2018-10-09T18:14:05.583Z,95474.92
2018-10-09T18:16:34.552Z,95480.95
2018-10-09T18:19:03.383Z,95482.32
2018-10-09T18:21:32.667Z,95479.84
2018-10-09T18:24:01.765Z,95486.17
2018-10-09T18:26:30.557Z,95489.98
2018-10-09T18:28:59.199Z,95488.80
2018-10-09T18:31:28.995Z,95486.92
2018-10-09T18:33:58.601Z,95494.86
2018-10-09T18:36:28.048Z,95492.72
2018-10-09T18:38:57.194Z,95502.19
2018-10-09T18:41:26.310Z,95499.62
2018-10-09T18:43:55.296Z,95503.73
2018-10-09T18:46:24.251Z,95506.79
2018-10-09T18:48:53.065Z,95507.95
2018-10-09T18:51:21.929Z,95509.55
2018-10-09T18:53:51.034Z,95509.83
2018-10-09T18:56:20.191Z,95512.34
2018-10-09T18:58:48.854Z,95516.59
2018-10-09T19:01:18.122Z,95519.50
2018-10-09T19:03:47.182Z,95520.22
2018-10-09T19:06:16.106Z,95519.27
2018-10-09T19:08:45.414Z,95521.10
2018-10-09T19:11:14.181Z,95524.03
2018-10-09T19:13:42.987Z,95517.35
2018-10-09T19:16:12.133Z,95518.78
2018-10-09T19:18:41.184Z,95520.63
2018-10-09T19:21:10.375Z,95525.48
2018-10-09T19:23:39.735Z,95526.63
2018-10-09T19:26:08.816Z,95525.78
2018-10-09T19:28:37.778Z,95522.10
2018-10-09T19:31:07.081Z,95531.38
2018-10-09T19:33:36.023Z,95536.98
2018-10-09T19:36:04.972Z,95534.71
2018-10-09T19:38:34.239Z,95539.11
2018-10-09T19:41:03.106Z,95546.76
2018-10-09T19:43:31.928Z,95548.59
2018-10-09T19:46:00.676Z,95547.02
2018-10-09T19:48:29.435Z,95552.65
2018-10-09T19:50:58.220Z,95553.55
2018-10-09T19:53:26.763Z,95557.58
2018-10-09T19:55:55.666Z,95554.30
2018-10-09T19:58:24.391Z,95552.03
2018-10-09T20:00:53.391Z,95558.67
2018-10-09T20:03:22.075Z,95558.48
2018-10-09T20:05:50.663Z,95559.33
2018-10-09T20:08:19.952Z,95563.13
2018-10-09T20:10:49.227Z,95566.06
2018-10-09T20:13:18.562Z,95559.87
2018-10-09T20:15:47.847Z,95566.31
2018-10-09T20:18:16.492Z,95564.73
2018-10-09T20:20:45.279Z,95558.49
2018-10-09T20:23:14.321Z,95561.61
2018-10-09T20:25:43.366Z,95563.92
2018-10-09T20:28:12.153Z,95567.91
2018-10-09T20:30:41.151Z,95563.06
2018-10-09T20:33:10.580Z,95568.43
2018-10-09T20:35:39.670Z,95576.18
2018-10-09T20:38:08.788Z,95573.27
2018-10-09T20:40:37.523Z,95575.31
2018-10-09T20:43:06.655Z,95573.21
2018-10-09T20:45:35.490Z,95576.09
2018-10-09T20:48:04.199Z,95578.48
2018-10-09T20:50:32.801Z,95580.15
2018-10-09T20:53:01.620Z,95576.47
2018-10-09T20:55:30.816Z,95579.14
2018-10-09T20:57:59.652Z,95579.34
2018-10-09T21:00:28.459Z,95582.38
2018-10-09T21:02:57.653Z,95582.41
2018-10-09T21:05:26.961Z,95587.38
2018-10-09T21:07:56.182Z,95586.92
2018-10-09T21:10:25.047Z,95586.88
2018-10-09T21:12:54.170Z,95589.08
2018-10-09T21:15:22.842Z,95586.98
2018-10-09T21:17:51.631Z,95582.05
2018-10-09T21:20:20.419Z,95583.08
2018-10-09T21:22:49.129Z,95587.22
2018-10-09T21:25:17.790Z,95588.14
2018-10-09T21:27:46.852Z,95594.41
2018-10-09T21:30:15.601Z,95586.13
2018-10-09T21:32:44.284Z,95595.80
2018-10-09T21:35:13.299Z,95593.40
2018-10-09T21:37:41.982Z,95591.23
2018-10-09T21:40:10.682Z,95595.75
2018-10-09T21:42:39.562Z,95599.69
2018-10-09T21:45:08.379Z,95603.44
2018-10-09T21:47:37.027Z,95594.48
2018-10-09T21:50:05.713Z,95593.30
2018-10-09T21:52:34.433Z,95592.80
2018-10-09T21:55:03.142Z,95594.61
2018-10-09T21:57:32.199Z,95595.05
2018-10-09T22:00:00.889Z,95601.75
2018-10-09T22:02:29.469Z,95591.30
2018-10-09T22:04:58.558Z,95600.16
2018-10-09T22:07:27.231Z,95593.30
2018-10-09T22:09:56.093Z,95592.59
2018-10-09T22:12:24.886Z,95594.53
2018-10-09T22:14:53.458Z,95587.91
2018-10-09T22:17:22.060Z,95594.73
2018-10-09T22:19:50.869Z,95597.42
2018-10-09T22:22:19.557Z,95594.79
2018-10-09T22:24:48.354Z,95597.19
2018-10-09T22:27:17.004Z,95598.62
2018-10-09T22:29:45.656Z,95598.84
2018-10-09T22:32:14.427Z,95593.82
2018-10-09T22:34:43.423Z,95588.87
2018-10-09T22:37:12.364Z,95591.05
2018-10-09T22:39:41.291Z,95589.83
2018-10-09T22:42:10.395Z,95586.33
2018-10-09T22:44:39.114Z,95587.77
2018-10-09T22:47:08.057Z,95582.56
2018-10-09T22:49:37.081Z,95588.88
2018-10-09T22:52:05.975Z,95586.75
2018-10-09T22:54:34.740Z,95589.32
2018-10-09T22:57:03.707Z,95590.70
2018-10-09T22:59:32.414Z,95591.60
2018-10-09T23:02:01.436Z,95581.75
2018-10-09T23:04:30.305Z,95590.61
2018-10-09T23:06:59.194Z,95596.39
2018-10-09T23:09:28.130Z,95528.20
2018-10-09T23:11:57.255Z,95596.08
2018-10-09T23:14:25.968Z,95597.18
2018-10-09T23:16:54.763Z,95595.03
2018-10-09T23:19:23.380Z,95614.22
2018-10-09T23:21:52.241Z,95592.23
2018-10-09T23:24:21.329Z,95593.41
2018-10-09T23:26:50.329Z,95521.78
2018-10-09T23:29:19.228Z,95591.05
2018-10-09T23:31:48.330Z,95589.06
2018-10-09T23:34:17.044Z,95587.27
2018-10-09T23:36:45.896Z,95589.06
2018-10-09T23:39:15.273Z,95594.16
2018-10-09T23:41:44.365Z,95585.86
2018-10-09T23:44:13.362Z,95586.39
2018-10-09T23:46:42.244Z,95609.18
2018-10-09T23:49:10.916Z,95585.39
2018-10-09T23:51:39.654Z,95585.59
2018-10-09T23:54:08.566Z,95591.67
2018-10-09T23:56:37.520Z,95587.19
2018-10-09T23:59:06.944Z,95587.58
